createdAt,value
2017-07-07T00:00:40.821Z,10.27
2017-07-07T00:03:14.510Z,13.73
2017-07-07T00:05:49.019Z,15.97
2017-07-07T00:08:22.937Z,13.60
2017-07-07T00:10:57.565Z,13.17
2017-07-07T00:13:31.493Z,11.57
2017-07-07T00:16:05.146Z,12.20
2017-07-07T00:18:39.705Z,11.53
2017-07-07T00:21:14.229Z,9.57
2017-07-07T00:23:48.159Z,8.30
2017-07-07T00:26:23.681Z,7.97
2017-07-07T00:28:58.318Z,5.80
2017-07-07T00:31:32.466Z,7.67
2017-07-07T00:34:07.812Z,13.93
2017-07-07T00:36:41.813Z,11.17
2017-07-07T00:39:15.527Z,3.53
2017-07-07T00:41:49.428Z,7.27
2017-07-07T00:44:23.754Z,5.67
2017-07-07T00:46:57.841Z,4.70
2017-07-07T00:49:31.457Z,4.30
2017-07-07T00:52:05.925Z,5.60
2017-07-07T00:54:39.899Z,8.53
2017-07-07T00:57:14.268Z,7.43
2017-07-07T00:59:49.038Z,6.07
2017-07-07T01:02:23.216Z,6.00
2017-07-07T01:04:57.009Z,6.40
2017-07-07T01:07:30.783Z,7.60
2017-07-07T01:10:05.306Z,7.37
2017-07-07T01:12:39.310Z,8.43
2017-07-07T01:15:13.688Z,7.33
2017-07-07T01:17:47.877Z,6.30
2017-07-07T01:20:22.401Z,8.17
2017-07-07T01:22:56.146Z,5.70
2017-07-07T01:25:29.836Z,5.97
2017-07-07T01:28:04.545Z,7.90
2017-07-07T01:30:38.269Z,6.40
2017-07-07T01:33:11.970Z,5.03
2017-07-07T01:35:46.486Z,4.40
2017-07-07T01:38:20.497Z,5.17
2017-07-07T01:40:55.006Z,5.20
2017-07-07T01:43:28.870Z,4.30
2017-07-07T01:46:03.382Z,5.17
2017-07-07T01:48:38.110Z,3.53
2017-07-07T01:51:12.703Z,4.83
2017-07-07T01:53:46.749Z,3.93
2017-07-07T01:56:20.454Z,4.57
2017-07-07T01:58:54.217Z,3.77
2017-07-07T02:01:28.742Z,4.30
2017-07-07T02:04:02.814Z,4.40
2017-07-07T02:06:38.197Z,3.93
2017-07-07T02:09:12.205Z,4.93
2017-07-07T02:11:45.840Z,3.83
2017-07-07T02:14:19.595Z,6.30
2017-07-07T02:16:53.304Z,3.40
2017-07-07T02:19:27.099Z,4.00
2017-07-07T02:22:00.729Z,4.10
2017-07-07T02:24:34.713Z,5.00
2017-07-07T02:27:08.446Z,4.17
2017-07-07T02:29:43.114Z,5.13
2017-07-07T02:32:17.689Z,4.20
2017-07-07T02:34:52.561Z,4.10
2017-07-07T02:37:26.553Z,6.77
2017-07-07T02:40:00.530Z,6.60
2017-07-07T02:42:34.181Z,6.80
2017-07-07T02:45:08.012Z,4.90
2017-07-07T02:47:42.510Z,4.23
2017-07-07T02:50:16.142Z,3.70
2017-07-07T02:52:49.873Z,4.10
2017-07-07T02:55:23.580Z,3.93
2017-07-07T02:57:58.055Z,3.83
2017-07-07T03:00:32.662Z,3.97
2017-07-07T03:03:06.536Z,3.10
2017-07-07T03:05:41.010Z,5.73
2017-07-07T03:08:14.870Z,5.33
2017-07-07T03:10:49.009Z,4.67
2017-07-07T03:13:23.397Z,6.30
2017-07-07T03:15:58.077Z,5.50
2017-07-07T03:18:32.005Z,6.20
2017-07-07T03:21:06.702Z,5.10
2017-07-07T03:23:40.717Z,4.93
2017-07-07T03:26:14.549Z,6.23
2017-07-07T03:28:49.009Z,4.53
2017-07-07T03:31:22.961Z,6.90
2017-07-07T03:33:57.437Z,5.40
2017-07-07T03:36:31.636Z,5.93
2017-07-07T03:39:05.258Z,5.57
2017-07-07T03:41:39.050Z,5.50
2017-07-07T03:44:12.659Z,7.67
2017-07-07T03:46:46.477Z,7.43
2017-07-07T03:49:20.150Z,7.37
2017-07-07T03:51:54.039Z,6.60
2017-07-07T03:54:27.754Z,6.73
2017-07-07T03:57:01.561Z,8.53
2017-07-07T03:59:35.182Z,7.23
2017-07-07T04:02:09.858Z,6.80
2017-07-07T04:04:43.765Z,6.83
2017-07-07T04:07:18.296Z,6.47
2017-07-07T04:09:52.218Z,6.97
2017-07-07T04:12:26.000Z,5.70
2017-07-07T04:14:59.741Z,7.80
2017-07-07T04:17:33.434Z,9.73
2017-07-07T04:20:07.218Z,8.63
2017-07-07T04:22:41.190Z,7.40
2017-07-07T04:25:14.894Z,8.97
2017-07-07T04:27:48.781Z,7.70
2017-07-07T04:30:22.499Z,5.70
2017-07-07T04:32:58.341Z,5.80
2017-07-07T04:35:32.027Z,6.47
2017-07-07T04:38:05.689Z,4.90
2017-07-07T04:40:39.410Z,6.93
2017-07-07T04:43:13.293Z,7.00
2017-07-07T04:45:47.018Z,7.67
2017-07-07T04:48:21.446Z,9.10
2017-07-07T04:50:55.405Z,10.00
2017-07-07T04:53:29.253Z,9.93
2017-07-07T04:56:02.909Z,8.53
2017-07-07T04:58:36.863Z,11.40
2017-07-07T05:01:11.319Z,15.23
2017-07-07T05:03:45.102Z,12.07
2017-07-07T05:06:18.730Z,11.63
2017-07-07T05:08:54.233Z,8.70
2017-07-07T05:11:28.053Z,7.53
2017-07-07T05:14:01.876Z,13.40
2017-07-07T05:16:35.601Z,8.83
2017-07-07T05:19:10.497Z,8.10
2017-07-07T05:21:44.190Z,8.00
2017-07-07T05:24:18.714Z,7.77
2017-07-07T05:26:52.671Z,8.73
2017-07-07T05:29:26.350Z,9.97
2017-07-07T05:32:00.030Z,11.80
2017-07-07T05:34:34.575Z,12.70
2017-07-07T05:37:08.491Z,15.40
2017-07-07T05:39:43.089Z,14.97
2017-07-07T05:42:17.781Z,17.80
2017-07-07T05:44:51.822Z,18.40
2017-07-07T05:47:26.221Z,15.10
2017-07-07T05:50:00.748Z,14.43
2017-07-07T05:52:34.781Z,15.47
2017-07-07T05:55:08.465Z,15.00
2017-07-07T05:57:42.185Z,14.90
2017-07-07T06:00:16.706Z,14.00
2017-07-07T06:02:51.294Z,16.53
2017-07-07T06:05:25.390Z,12.90
2017-07-07T06:07:59.055Z,11.47
2017-07-07T06:10:33.578Z,13.10
2017-07-07T06:13:07.504Z,12.93
2017-07-07T06:15:41.517Z,12.07
2017-07-07T06:18:15.298Z,11.27
2017-07-07T06:20:49.646Z,11.10
2017-07-07T06:23:24.513Z,11.00
2017-07-07T06:25:59.222Z,10.80
2017-07-07T06:28:32.974Z,8.93
2017-07-07T06:31:06.695Z,9.50
2017-07-07T06:33:40.382Z,9.60
2017-07-07T06:36:14.810Z,9.80
2017-07-07T06:38:48.712Z,10.23
2017-07-07T06:41:23.228Z,9.03
2017-07-07T06:43:57.145Z,9.03
2017-07-07T06:46:31.665Z,9.63
2017-07-07T06:49:05.701Z,12.03
2017-07-07T06:51:40.305Z,7.97
2017-07-07T06:54:14.024Z,8.47
2017-07-07T06:56:47.923Z,8.40
2017-07-07T06:59:22.434Z,8.50
2017-07-07T07:01:57.370Z,8.40
2017-07-07T07:04:31.318Z,6.70
2017-07-07T07:07:05.211Z,6.63
2017-07-07T07:09:39.654Z,6.80
2017-07-07T07:12:14.313Z,6.40
2017-07-07T07:14:48.245Z,5.93
2017-07-07T07:17:22.106Z,6.77
2017-07-07T07:19:55.792Z,9.90
2017-07-07T07:22:29.961Z,7.33
2017-07-07T07:25:04.372Z,6.63
2017-07-07T07:27:38.269Z,7.63
2017-07-07T07:30:12.786Z,5.97
2017-07-07T07:32:46.578Z,6.67
2017-07-07T07:35:21.114Z,7.90
2017-07-07T07:37:54.792Z,7.60
2017-07-07T07:40:28.418Z,6.27
2017-07-07T07:43:02.158Z,6.40
2017-07-07T07:45:36.745Z,6.67
2017-07-07T07:48:10.625Z,7.60
2017-07-07T07:50:44.359Z,5.03
2017-07-07T07:53:20.114Z,5.40
2017-07-07T07:55:53.914Z,5.43
2017-07-07T07:58:27.801Z,6.50
2017-07-07T08:01:01.625Z,6.23
2017-07-07T08:03:36.146Z,5.60
2017-07-07T08:06:10.149Z,5.00
2017-07-07T08:08:43.842Z,5.20
2017-07-07T08:11:17.461Z,6.50
2017-07-07T08:13:51.365Z,5.60
2017-07-07T08:16:25.793Z,5.23
2017-07-07T08:18:59.754Z,5.60
2017-07-07T08:21:34.325Z,5.30
2017-07-07T08:24:10.893Z,6.00
2017-07-07T08:26:46.188Z,6.70
2017-07-07T08:29:20.393Z,5.30
2017-07-07T08:31:54.173Z,5.67
2017-07-07T08:34:28.666Z,5.60
2017-07-07T08:37:02.617Z,6.23
2017-07-07T08:39:37.424Z,5.60
2017-07-07T08:42:11.295Z,5.80
2017-07-07T08:44:46.652Z,4.90
2017-07-07T08:47:21.246Z,5.73
2017-07-07T08:49:55.274Z,4.60
2017-07-07T08:52:28.882Z,5.10
2017-07-07T08:55:02.540Z,4.67
2017-07-07T08:57:36.219Z,4.50
2017-07-07T09:00:09.958Z,4.77
2017-07-07T09:02:44.390Z,5.40
2017-07-07T09:05:18.481Z,5.30
2017-07-07T09:07:52.261Z,4.80
2017-07-07T09:10:26.077Z,4.70
2017-07-07T09:12:59.791Z,5.40
2017-07-07T09:15:34.389Z,7.40
2017-07-07T09:18:08.190Z,4.70
2017-07-07T09:20:42.894Z,5.07
2017-07-07T09:23:16.696Z,5.03
2017-07-07T09:25:50.542Z,5.73
2017-07-07T09:28:24.136Z,5.60
2017-07-07T09:30:58.678Z,5.23
2017-07-07T09:33:32.490Z,5.40
2017-07-07T09:36:07.110Z,4.70
2017-07-07T09:38:40.894Z,5.97
2017-07-07T09:41:15.432Z,7.57
2017-07-07T09:43:49.353Z,5.17
2017-07-07T09:46:23.973Z,5.60
2017-07-07T09:48:57.736Z,10.30
2017-07-07T09:51:31.658Z,6.53
2017-07-07T09:54:06.086Z,6.30
2017-07-07T09:56:40.497Z,5.83
2017-07-07T09:59:14.574Z,7.50
2017-07-07T10:01:49.262Z,4.80
2017-07-07T10:04:24.540Z,6.17
2017-07-07T10:06:58.631Z,6.60
2017-07-07T10:09:33.797Z,5.90
2017-07-07T10:12:07.729Z,6.03
2017-07-07T10:14:42.234Z,5.80
2017-07-07T10:17:17.106Z,5.87
2017-07-07T10:19:50.900Z,4.67
2017-07-07T10:22:25.432Z,5.30
2017-07-07T10:24:59.385Z,4.87
2017-07-07T10:27:33.229Z,6.20
2017-07-07T10:30:06.941Z,5.10
2017-07-07T10:32:40.797Z,5.70
2017-07-07T10:35:15.238Z,5.70
2017-07-07T10:37:49.793Z,5.60
2017-07-07T10:40:23.594Z,6.00
2017-07-07T10:42:57.408Z,5.63
2017-07-07T10:45:31.118Z,5.97
2017-07-07T10:48:04.954Z,5.77
2017-07-07T10:50:38.666Z,8.77
2017-07-07T10:53:13.313Z,11.97
2017-07-07T10:55:47.045Z,5.30
2017-07-07T10:58:20.918Z,5.60
2017-07-07T11:00:54.574Z,6.23
2017-07-07T11:03:28.318Z,5.73
2017-07-07T11:06:02.062Z,6.73
2017-07-07T11:08:35.821Z,7.70
2017-07-07T11:11:10.358Z,5.90
2017-07-07T11:13:45.148Z,6.33
2017-07-07T11:16:19.826Z,5.60
2017-07-07T11:18:53.962Z,7.07
2017-07-07T11:21:27.712Z,5.90
2017-07-07T11:24:02.330Z,5.67
2017-07-07T11:26:36.034Z,5.40
2017-07-07T11:29:10.006Z,4.80
2017-07-07T11:31:44.540Z,5.50
2017-07-07T11:34:18.279Z,5.70
2017-07-07T11:36:53.650Z,5.30
2017-07-07T11:39:27.550Z,5.13
2017-07-07T11:42:01.973Z,6.30
2017-07-07T11:44:36.652Z,5.77
2017-07-07T11:47:11.230Z,5.17
2017-07-07T11:49:45.181Z,6.20
2017-07-07T11:52:18.869Z,6.37
2017-07-07T11:54:53.850Z,6.07
2017-07-07T11:57:27.607Z,12.37
2017-07-07T12:00:01.353Z,6.00
2017-07-07T12:02:35.108Z,5.77
2017-07-07T12:05:08.826Z,6.50
2017-07-07T12:07:43.451Z,6.47
2017-07-07T12:10:17.421Z,6.90
2017-07-07T12:12:52.766Z,7.03
2017-07-07T12:15:26.612Z,7.53
2017-07-07T12:18:00.994Z,7.70
2017-07-07T12:20:35.880Z,5.43
2017-07-07T12:23:09.665Z,6.97
2017-07-07T12:25:43.481Z,7.30
2017-07-07T12:28:17.861Z,6.70
2017-07-07T12:30:52.821Z,6.43
2017-07-07T12:33:26.779Z,5.57
2017-07-07T12:36:01.157Z,6.67
2017-07-07T12:38:34.958Z,7.20
2017-07-07T12:41:09.606Z,6.00
2017-07-07T12:43:43.465Z,6.00
2017-07-07T12:46:17.238Z,6.63
2017-07-07T12:48:50.998Z,6.43
2017-07-07T12:51:24.733Z,6.00
2017-07-07T12:53:58.377Z,6.53
2017-07-07T12:56:32.841Z,5.50
2017-07-07T12:59:06.733Z,5.27
2017-07-07T13:01:40.657Z,6.97
2017-07-07T13:04:15.039Z,8.95
2017-07-07T13:06:49.885Z,5.13
2017-07-07T13:09:23.821Z,6.83
2017-07-07T13:11:57.526Z,11.87
2017-07-07T13:14:31.994Z,5.93
2017-07-07T13:17:06.086Z,6.00
2017-07-07T13:19:39.857Z,5.30
2017-07-07T13:22:14.540Z,5.20
2017-07-07T13:24:48.962Z,5.53
2017-07-07T13:27:22.894Z,5.50
2017-07-07T13:29:56.503Z,5.03
2017-07-07T13:32:30.385Z,8.40
2017-07-07T13:35:04.830Z,6.03
2017-07-07T13:37:38.623Z,5.77
2017-07-07T13:40:13.509Z,8.13
2017-07-07T13:42:47.874Z,4.97
2017-07-07T13:45:21.594Z,6.83
2017-07-07T13:47:56.238Z,4.63
2017-07-07T13:50:30.033Z,7.70
2017-07-07T13:53:05.714Z,5.17
2017-07-07T13:55:40.253Z,5.40
2017-07-07T13:58:15.126Z,6.37
2017-07-07T14:00:48.890Z,4.83
2017-07-07T14:03:22.651Z,4.63
2017-07-07T14:05:57.274Z,9.23
2017-07-07T14:08:31.867Z,5.53
2017-07-07T14:11:06.375Z,4.87
2017-07-07T14:13:40.255Z,4.60
2017-07-07T14:16:14.698Z,7.10
2017-07-07T14:18:49.474Z,3.90
2017-07-07T14:21:23.378Z,7.20
2017-07-07T14:23:58.144Z,5.00
2017-07-07T14:26:32.676Z,4.10
2017-07-07T14:29:07.251Z,4.40
2017-07-07T14:31:40.954Z,4.83
2017-07-07T14:34:15.579Z,4.70
2017-07-07T14:36:49.385Z,3.97
2017-07-07T14:39:24.012Z,3.30
2017-07-07T14:41:57.770Z,4.23
2017-07-07T14:44:31.507Z,3.80
2017-07-07T14:47:05.174Z,4.57
2017-07-07T14:49:39.090Z,4.13
2017-07-07T14:52:14.423Z,8.23
2017-07-07T14:54:49.527Z,22.60
2017-07-07T14:57:23.328Z,17.80
2017-07-07T14:59:57.914Z,6.10
2017-07-07T15:02:31.623Z,7.90
2017-07-07T15:05:06.269Z,20.47
2017-07-07T15:07:40.955Z,27.67
2017-07-07T15:10:15.261Z,10.77
2017-07-07T15:12:49.818Z,5.10
2017-07-07T15:15:24.458Z,4.00
2017-07-07T15:17:58.938Z,3.83
2017-07-07T15:20:33.079Z,5.63
2017-07-07T15:23:07.677Z,9.17
2017-07-07T15:25:42.257Z,7.30
2017-07-07T15:28:16.093Z,5.20
2017-07-07T15:30:50.698Z,4.50
2017-07-07T15:33:24.673Z,4.30
2017-07-07T15:35:59.311Z,4.60
2017-07-07T15:38:33.790Z,5.30
2017-07-07T15:41:07.861Z,6.80
2017-07-07T15:43:41.481Z,9.90
2017-07-07T15:46:15.301Z,7.43
2017-07-07T15:48:49.726Z,8.70
2017-07-07T15:51:23.613Z,16.00
2017-07-07T15:53:57.395Z,8.07
2017-07-07T15:56:31.820Z,4.20
2017-07-07T15:59:05.806Z,6.13
2017-07-07T16:01:39.604Z,3.33
2017-07-07T16:04:13.330Z,4.27
2017-07-07T16:06:47.747Z,3.90
2017-07-07T16:09:22.330Z,3.03
2017-07-07T16:11:56.499Z,3.57
2017-07-07T16:14:30.150Z,2.87
2017-07-07T16:17:03.780Z,3.10
2017-07-07T16:19:37.551Z,2.90
2017-07-07T16:22:11.209Z,2.60
2017-07-07T16:24:45.761Z,3.60
2017-07-07T16:27:19.526Z,4.47
2017-07-07T16:29:54.014Z,3.00
2017-07-07T16:32:27.874Z,4.67
2017-07-07T16:35:01.558Z,4.07
2017-07-07T16:37:35.285Z,2.90
2017-07-07T16:40:09.829Z,3.00
2017-07-07T16:42:44.853Z,2.90
2017-07-07T16:45:19.016Z,3.00
2017-07-07T16:47:53.820Z,3.00
2017-07-07T16:50:29.057Z,3.13
2017-07-07T16:53:05.274Z,3.90
2017-07-07T16:55:39.844Z,3.77
2017-07-07T16:58:13.740Z,3.53
2017-07-07T17:00:48.173Z,3.30
2017-07-07T17:03:22.283Z,3.60
2017-07-07T17:05:57.653Z,3.60
2017-07-07T17:08:31.642Z,3.70
2017-07-07T17:11:06.153Z,3.67
2017-07-07T17:13:39.926Z,3.20
2017-07-07T17:16:14.541Z,3.63
2017-07-07T17:18:49.885Z,3.20
2017-07-07T17:21:23.638Z,4.10
2017-07-07T17:23:59.230Z,4.17
2017-07-07T17:26:33.609Z,4.10
2017-07-07T17:29:07.614Z,4.10
2017-07-07T17:31:42.146Z,4.27
2017-07-07T17:34:16.054Z,4.67
2017-07-07T17:36:50.481Z,3.70
2017-07-07T17:39:24.381Z,3.93
2017-07-07T17:41:58.910Z,3.90
2017-07-07T17:44:33.013Z,6.87
2017-07-07T17:47:06.599Z,3.47
2017-07-07T17:49:40.517Z,5.73
2017-07-07T17:52:14.210Z,4.13
2017-07-07T17:54:48.898Z,4.83
2017-07-07T17:57:23.477Z,3.53
2017-07-07T17:59:57.536Z,3.47
2017-07-07T18:02:32.014Z,3.80
2017-07-07T18:05:05.843Z,3.70
2017-07-07T18:07:39.450Z,3.00
2017-07-07T18:10:13.818Z,4.20
2017-07-07T18:12:47.831Z,4.33
2017-07-07T18:15:22.390Z,3.80
2017-07-07T18:17:56.385Z,3.10
2017-07-07T18:20:30.125Z,3.50
2017-07-07T18:23:03.901Z,3.93
2017-07-07T18:25:38.425Z,2.70
2017-07-07T18:28:12.282Z,3.07
2017-07-07T18:30:46.853Z,3.40
2017-07-07T18:33:21.506Z,5.10
2017-07-07T18:35:56.258Z,3.43
2017-07-07T18:38:30.175Z,3.60
2017-07-07T18:41:04.003Z,3.17
2017-07-07T18:43:37.872Z,3.47
2017-07-07T18:46:12.425Z,3.87
2017-07-07T18:48:47.105Z,4.37
2017-07-07T18:51:20.989Z,5.83
2017-07-07T18:53:54.593Z,3.80
2017-07-07T18:56:29.431Z,4.27
2017-07-07T18:59:03.965Z,3.37
2017-07-07T19:01:37.956Z,5.97
2017-07-07T19:04:12.627Z,5.57
2017-07-07T19:06:46.526Z,3.83
2017-07-07T19:09:20.198Z,4.27
2017-07-07T19:11:54.059Z,4.40
2017-07-07T19:14:28.545Z,8.03
2017-07-07T19:17:02.722Z,3.20
2017-07-07T19:19:37.919Z,3.30
2017-07-07T19:22:11.936Z,5.43
2017-07-07T19:24:46.354Z,3.23
2017-07-07T19:27:20.339Z,10.63
2017-07-07T19:29:54.781Z,3.90
2017-07-07T19:32:28.861Z,3.50
2017-07-07T19:35:03.349Z,3.43
2017-07-07T19:37:37.206Z,4.50
2017-07-07T19:40:11.761Z,3.27
2017-07-07T19:42:46.310Z,3.20
2017-07-07T19:45:20.319Z,3.93
2017-07-07T19:47:54.203Z,5.37
2017-07-07T19:50:28.750Z,5.40
2017-07-07T19:53:02.440Z,3.90
2017-07-07T19:55:36.057Z,4.80
2017-07-07T19:58:09.904Z,4.00
2017-07-07T20:00:44.348Z,4.50
2017-07-07T20:03:18.429Z,4.13
2017-07-07T20:05:52.066Z,4.17
2017-07-07T20:08:25.914Z,4.17
2017-07-07T20:11:00.393Z,4.83
2017-07-07T20:13:34.489Z,4.10
2017-07-07T20:16:09.021Z,3.80
2017-07-07T20:18:43.129Z,4.27
2017-07-07T20:21:16.718Z,4.37
2017-07-07T20:23:51.477Z,5.10
2017-07-07T20:26:25.094Z,5.07
2017-07-07T20:28:58.958Z,5.40
2017-07-07T20:31:32.677Z,5.90
2017-07-07T20:34:07.270Z,4.87
2017-07-07T20:36:41.210Z,5.37
2017-07-07T20:39:15.134Z,11.10
2017-07-07T20:41:48.899Z,8.70
2017-07-07T20:44:22.694Z,8.67
2017-07-07T20:46:57.273Z,8.33
2017-07-07T20:49:31.057Z,7.83
2017-07-07T20:52:05.529Z,7.33
2017-07-07T20:54:41.258Z,7.30
2017-07-07T20:57:15.854Z,8.00
2017-07-07T20:59:50.010Z,9.83
2017-07-07T21:02:23.621Z,10.33
2017-07-07T21:04:58.353Z,13.10
2017-07-07T21:07:33.045Z,13.70
2017-07-07T21:10:07.230Z,11.67
2017-07-07T21:12:40.881Z,9.20
2017-07-07T21:15:14.693Z,7.60
2017-07-07T21:17:49.081Z,7.50
2017-07-07T21:20:23.849Z,7.33
2017-07-07T21:22:57.649Z,7.00
2017-07-07T21:25:33.472Z,7.33
2017-07-07T21:28:07.310Z,10.60
2017-07-07T21:30:41.757Z,11.10
2017-07-07T21:33:15.639Z,8.37
2017-07-07T21:35:50.250Z,7.57
2017-07-07T21:38:24.214Z,8.70
2017-07-07T21:40:58.902Z,9.17
2017-07-07T21:43:33.522Z,8.43
2017-07-07T21:46:07.497Z,7.90
2017-07-07T21:48:42.009Z,6.77
2017-07-07T21:51:16.669Z,6.37
2017-07-07T21:53:50.513Z,6.43
2017-07-07T21:56:25.290Z,9.03
2017-07-07T21:58:58.896Z,10.30
2017-07-07T22:01:33.446Z,13.10
2017-07-07T22:04:07.249Z,8.10
2017-07-07T22:06:41.066Z,9.93
2017-07-07T22:09:14.686Z,17.00
2017-07-07T22:11:49.294Z,18.43
2017-07-07T22:14:23.225Z,19.47
2017-07-07T22:16:57.123Z,22.20
2017-07-07T22:19:31.606Z,20.97
2017-07-07T22:22:05.305Z,20.50
2017-07-07T22:24:39.700Z,18.13
2017-07-07T22:27:14.713Z,15.93
2017-07-07T22:29:48.493Z,16.63
2017-07-07T22:32:23.116Z,13.70
2017-07-07T22:34:57.695Z,14.53
2017-07-07T22:37:31.766Z,17.07
2017-07-07T22:40:05.483Z,16.10
2017-07-07T22:42:40.086Z,12.63
2017-07-07T22:45:14.014Z,15.57
2017-07-07T22:47:48.626Z,11.20
2017-07-07T22:50:22.627Z,13.10
2017-07-07T22:52:57.301Z,12.50
2017-07-07T22:55:31.682Z,11.60
2017-07-07T22:58:05.879Z,11.73
2017-07-07T23:00:40.769Z,11.00
2017-07-07T23:03:14.766Z,8.83
2017-07-07T23:05:48.381Z,9.10
2017-07-07T23:08:22.287Z,7.77
2017-07-07T23:10:55.893Z,9.17
2017-07-07T23:13:29.605Z,10.43
2017-07-07T23:16:03.305Z,11.43
2017-07-07T23:18:37.142Z,9.23
2017-07-07T23:21:10.911Z,10.50
2017-07-07T23:23:45.561Z,9.80
2017-07-07T23:26:19.958Z,10.37
2017-07-07T23:28:53.962Z,10.63
2017-07-07T23:31:27.550Z,9.67
2017-07-07T23:34:01.205Z,13.10
2017-07-07T23:36:34.877Z,12.20
2017-07-07T23:39:08.569Z,14.20
2017-07-07T23:41:43.089Z,11.83
2017-07-07T23:44:17.110Z,11.07
2017-07-07T23:46:51.771Z,12.13
2017-07-07T23:49:25.538Z,9.50
2017-07-07T23:51:59.962Z,8.73
2017-07-07T23:54:35.070Z,8.87
2017-07-07T23:57:09.622Z,10.20
2017-07-07T23:59:43.557Z,9.53
